createdAt,value
2018-07-31T00:00:43.811Z,99.90
2018-07-31T00:03:13.966Z,99.90
2018-07-31T00:05:44.108Z,99.90
2018-07-31T00:08:14.208Z,99.90
2018-07-31T00:10:44.308Z,99.90
2018-07-31T00:13:14.388Z,99.90
2018-07-31T00:15:44.483Z,99.90
2018-07-31T00:18:14.556Z,99.90
2018-07-31T00:20:44.872Z,99.90
2018-07-31T00:23:14.948Z,99.90
2018-07-31T00:25:45.088Z,99.90
2018-07-31T00:28:15.187Z,99.90
2018-07-31T00:30:45.265Z,99.90
2018-07-31T00:33:15.379Z,99.90
2018-07-31T00:35:45.444Z,99.90
2018-07-31T00:38:15.523Z,99.90
2018-07-31T00:40:45.599Z,99.90
2018-07-31T00:43:15.676Z,99.90
2018-07-31T00:45:45.809Z,99.90
2018-07-31T00:48:15.904Z,99.90
2018-07-31T00:50:46.115Z,99.90
2018-07-31T00:53:16.259Z,99.90
2018-07-31T00:55:46.336Z,99.90
2018-07-31T00:58:16.420Z,99.90
2018-07-31T01:00:46.532Z,99.90
2018-07-31T01:03:16.599Z,99.90
2018-07-31T01:05:46.723Z,99.90
2018-07-31T01:08:16.792Z,99.90
2018-07-31T01:10:46.903Z,99.90
2018-07-31T01:13:17.027Z,99.90
2018-07-31T01:15:47.100Z,99.90
2018-07-31T01:18:17.219Z,99.90
2018-07-31T01:20:51.291Z,99.90
2018-07-31T01:23:21.421Z,99.90
2018-07-31T01:25:51.507Z,99.90
2018-07-31T01:28:21.628Z,99.90
2018-07-31T01:30:51.708Z,99.90
2018-07-31T01:33:21.832Z,99.90
2018-07-31T01:35:51.924Z,99.90
2018-07-31T01:38:22.010Z,99.90
2018-07-31T01:40:52.115Z,99.90
2018-07-31T01:43:22.220Z,99.90
2018-07-31T01:45:52.335Z,99.90
2018-07-31T01:48:22.392Z,99.90
2018-07-31T01:50:52.487Z,99.90
2018-07-31T01:53:22.547Z,99.90
2018-07-31T01:55:52.611Z,99.90
2018-07-31T01:58:22.683Z,99.90
2018-07-31T02:00:52.783Z,99.90
2018-07-31T02:03:22.911Z,99.90
2018-07-31T02:05:53.009Z,99.90
2018-07-31T02:08:23.109Z,99.90
2018-07-31T02:10:53.224Z,99.90
2018-07-31T02:13:23.315Z,99.90
2018-07-31T02:15:53.415Z,99.90
2018-07-31T02:18:23.495Z,99.90
2018-07-31T02:20:53.823Z,99.90
2018-07-31T02:23:23.906Z,99.90
2018-07-31T02:25:53.982Z,99.90
2018-07-31T02:28:24.261Z,99.90
2018-07-31T02:30:54.186Z,99.90
2018-07-31T02:33:24.276Z,99.90
2018-07-31T02:35:54.331Z,99.90
2018-07-31T02:38:24.406Z,99.90
2018-07-31T02:40:54.488Z,99.90
2018-07-31T02:43:24.649Z,99.90
2018-07-31T02:45:54.764Z,99.90
2018-07-31T02:48:24.839Z,99.90
2018-07-31T02:50:55.388Z,99.90
2018-07-31T02:53:25.459Z,99.90
2018-07-31T02:55:55.699Z,99.90
2018-07-31T02:58:25.776Z,99.90
2018-07-31T03:00:55.886Z,99.90
2018-07-31T03:03:26.062Z,99.90
2018-07-31T03:05:56.159Z,99.90
2018-07-31T03:08:26.362Z,99.90
2018-07-31T03:10:56.510Z,99.90
2018-07-31T03:13:26.568Z,99.90
2018-07-31T03:15:56.643Z,99.90
2018-07-31T03:18:26.724Z,99.90
2018-07-31T03:20:56.823Z,99.90
2018-07-31T03:23:26.924Z,99.90
2018-07-31T03:25:57.124Z,99.90
2018-07-31T03:28:27.189Z,99.90
2018-07-31T03:30:57.271Z,99.90
2018-07-31T03:33:27.347Z,99.90
2018-07-31T03:35:57.415Z,99.90
2018-07-31T03:38:27.485Z,99.90
2018-07-31T03:40:57.652Z,99.90
2018-07-31T03:43:27.739Z,99.90
2018-07-31T03:45:57.880Z,99.90
2018-07-31T03:48:27.980Z,99.90
2018-07-31T03:50:58.088Z,99.90
2018-07-31T03:53:29.679Z,99.90
2018-07-31T03:55:59.832Z,99.90
2018-07-31T03:58:29.913Z,99.90
2018-07-31T04:01:00.000Z,99.90
2018-07-31T04:03:30.092Z,99.90
2018-07-31T04:06:00.244Z,99.90
2018-07-31T04:08:30.371Z,99.90
2018-07-31T04:11:00.512Z,99.70
2018-07-31T04:13:31.840Z,99.70
2018-07-31T04:16:09.905Z,98.90
2018-07-31T04:18:41.255Z,98.30
2018-07-31T04:21:11.368Z,97.50
2018-07-31T04:23:41.492Z,96.40
2018-07-31T04:26:11.567Z,95.70
2018-07-31T04:28:41.659Z,94.70
2018-07-31T04:31:11.723Z,94.40
2018-07-31T04:33:41.811Z,93.80
2018-07-31T04:36:11.952Z,93.50
2018-07-31T04:38:42.013Z,92.60
2018-07-31T04:41:12.129Z,91.90
2018-07-31T04:43:42.168Z,91.60
2018-07-31T04:46:12.425Z,90.40
2018-07-31T04:48:42.588Z,90.40
2018-07-31T04:51:12.670Z,88.00
2018-07-31T04:53:42.801Z,86.30
2018-07-31T04:56:12.860Z,85.80
2018-07-31T04:58:42.923Z,84.40
2018-07-31T05:01:13.040Z,82.80
2018-07-31T05:03:43.153Z,81.40
2018-07-31T05:06:13.268Z,83.10
2018-07-31T05:08:43.347Z,80.40
2018-07-31T05:11:13.534Z,79.30
2018-07-31T05:13:43.576Z,78.30
2018-07-31T05:16:13.639Z,76.60
2018-07-31T05:18:43.774Z,75.30
2018-07-31T05:21:13.849Z,75.70
2018-07-31T05:23:43.936Z,72.90
2018-07-31T05:26:14.037Z,70.00
2018-07-31T05:28:44.113Z,67.50
2018-07-31T05:31:14.228Z,66.20
2018-07-31T05:33:44.299Z,65.80
2018-07-31T05:36:14.414Z,64.80
2018-07-31T05:38:44.492Z,64.50
2018-07-31T05:41:14.627Z,63.00
2018-07-31T05:43:44.816Z,62.60
2018-07-31T05:46:14.969Z,62.50
2018-07-31T05:48:45.056Z,61.60
2018-07-31T05:51:15.208Z,61.80
2018-07-31T05:53:45.320Z,61.20
2018-07-31T05:56:15.391Z,61.50
2018-07-31T05:58:45.496Z,61.20
2018-07-31T06:01:15.605Z,60.40
2018-07-31T06:03:45.705Z,59.50
2018-07-31T06:06:15.829Z,58.40
2018-07-31T06:08:46.004Z,58.30
2018-07-31T06:11:16.937Z,57.40
2018-07-31T06:13:47.024Z,57.60
2018-07-31T06:16:17.116Z,57.40
2018-07-31T06:18:47.245Z,56.70
2018-07-31T06:21:17.348Z,56.10
2018-07-31T06:23:47.422Z,56.00
2018-07-31T06:26:17.520Z,55.90
2018-07-31T06:28:47.603Z,55.70
2018-07-31T06:31:17.732Z,55.10
2018-07-31T06:33:47.836Z,54.30
2018-07-31T06:36:17.919Z,52.60
2018-07-31T06:38:48.062Z,53.70
2018-07-31T06:41:18.612Z,53.00
2018-07-31T06:43:48.738Z,52.90
2018-07-31T06:46:18.865Z,51.90
2018-07-31T06:48:48.955Z,51.30
2018-07-31T06:51:19.148Z,51.80
2018-07-31T06:53:49.248Z,51.90
2018-07-31T06:56:19.345Z,51.90
2018-07-31T06:58:49.425Z,52.40
2018-07-31T07:01:19.525Z,51.00
2018-07-31T07:03:49.649Z,51.00
2018-07-31T07:06:19.849Z,49.00
2018-07-31T07:08:49.930Z,51.10
2018-07-31T07:11:20.023Z,50.70
2018-07-31T07:13:50.188Z,49.00
2018-07-31T07:16:20.276Z,48.00
2018-07-31T07:18:50.399Z,49.30
2018-07-31T07:21:20.533Z,47.70
2018-07-31T07:23:50.597Z,46.30
2018-07-31T07:26:20.679Z,46.90
2018-07-31T07:28:50.787Z,46.80
2018-07-31T07:31:20.913Z,47.80
2018-07-31T07:33:51.012Z,47.00
2018-07-31T07:36:21.136Z,46.90
2018-07-31T07:38:51.240Z,47.00
2018-07-31T07:41:21.331Z,46.40
2018-07-31T07:43:51.444Z,46.00
2018-07-31T07:46:21.616Z,47.30
2018-07-31T07:48:51.682Z,47.90
2018-07-31T07:51:21.776Z,47.90
2018-07-31T07:53:51.961Z,48.00
2018-07-31T07:56:22.102Z,49.30
2018-07-31T07:58:52.250Z,48.80
2018-07-31T08:01:22.419Z,45.60
2018-07-31T08:03:52.598Z,47.00
2018-07-31T08:06:22.732Z,48.30
2018-07-31T08:08:52.832Z,50.60
2018-07-31T08:11:22.947Z,49.70
2018-07-31T08:13:53.024Z,50.70
2018-07-31T08:16:23.255Z,50.20
2018-07-31T08:18:53.392Z,47.50
2018-07-31T08:21:23.514Z,47.60
2018-07-31T08:23:53.613Z,49.90
2018-07-31T08:26:23.750Z,47.70
2018-07-31T08:28:53.840Z,47.00
2018-07-31T08:31:23.976Z,46.80
2018-07-31T08:33:54.113Z,48.20
2018-07-31T08:36:24.464Z,44.90
2018-07-31T08:38:54.568Z,47.80
2018-07-31T08:41:24.796Z,47.10
2018-07-31T08:43:54.914Z,46.20
2018-07-31T08:46:25.317Z,47.60
2018-07-31T08:48:55.572Z,46.10
2018-07-31T08:51:25.687Z,47.70
2018-07-31T08:53:55.816Z,47.10
2018-07-31T08:56:25.913Z,41.80
2018-07-31T08:58:56.067Z,41.80
2018-07-31T09:01:26.143Z,41.10
2018-07-31T09:03:56.236Z,42.00
2018-07-31T09:06:26.325Z,44.70
2018-07-31T09:08:56.429Z,40.70
2018-07-31T09:11:26.600Z,42.00
2018-07-31T09:13:56.674Z,40.80
2018-07-31T09:16:26.759Z,42.30
2018-07-31T09:18:56.838Z,43.20
2018-07-31T09:21:26.903Z,42.20
2018-07-31T09:23:57.151Z,40.80
2018-07-31T09:26:27.249Z,43.60
2018-07-31T09:28:57.345Z,42.60
2018-07-31T09:31:27.421Z,40.80
2018-07-31T09:33:57.479Z,42.00
2018-07-31T09:36:27.623Z,42.70
2018-07-31T09:38:57.677Z,39.60
2018-07-31T09:41:27.740Z,41.50
2018-07-31T09:43:57.859Z,42.30
2018-07-31T09:46:27.933Z,43.40
2018-07-31T09:48:58.007Z,44.30
2018-07-31T09:51:28.119Z,43.40
2018-07-31T09:53:58.396Z,41.60
2018-07-31T09:56:28.508Z,41.50
2018-07-31T09:58:58.660Z,42.80
2018-07-31T10:01:28.734Z,42.30
2018-07-31T10:03:59.351Z,42.50
2018-07-31T10:06:29.419Z,43.30
2018-07-31T10:08:59.507Z,44.10
2018-07-31T10:11:29.627Z,43.90
2018-07-31T10:14:00.913Z,43.30
2018-07-31T10:16:31.036Z,42.40
2018-07-31T10:19:01.152Z,44.20
2018-07-31T10:21:31.240Z,43.90
2018-07-31T10:24:01.400Z,43.60
2018-07-31T10:26:31.452Z,44.80
2018-07-31T10:29:01.544Z,43.00
2018-07-31T10:31:31.600Z,45.30
2018-07-31T10:34:01.825Z,44.00
2018-07-31T10:36:31.947Z,42.40
2018-07-31T10:39:02.072Z,42.10
2018-07-31T10:41:32.152Z,41.20
2018-07-31T10:44:02.341Z,41.80
2018-07-31T10:46:32.344Z,44.80
2018-07-31T10:49:02.556Z,43.90
2018-07-31T10:51:32.623Z,44.80
2018-07-31T10:54:02.732Z,46.00
2018-07-31T10:56:34.400Z,45.20
2018-07-31T10:59:04.655Z,47.00
2018-07-31T11:01:34.812Z,48.50
2018-07-31T11:04:04.965Z,48.80
2018-07-31T11:06:35.222Z,49.60
2018-07-31T11:09:08.980Z,45.30
2018-07-31T11:11:39.168Z,45.50
2018-07-31T11:14:10.068Z,44.80
2018-07-31T11:16:40.211Z,47.30
2018-07-31T11:19:10.295Z,44.70
2018-07-31T11:21:40.412Z,45.10
2018-07-31T11:24:10.524Z,48.20
2018-07-31T11:26:40.616Z,48.70
2018-07-31T11:29:10.671Z,48.40
2018-07-31T11:31:40.762Z,46.40
2018-07-31T11:34:10.820Z,47.10
2018-07-31T11:36:40.916Z,46.10
2018-07-31T11:39:12.064Z,43.20
2018-07-31T11:41:42.200Z,46.10
2018-07-31T11:44:12.274Z,45.60
2018-07-31T11:46:42.339Z,44.60
2018-07-31T11:49:12.419Z,41.90
2018-07-31T11:51:42.604Z,43.30
2018-07-31T11:54:12.692Z,43.20
2018-07-31T11:56:42.792Z,41.60
2018-07-31T11:59:12.895Z,41.70
2018-07-31T12:01:43.075Z,44.30
2018-07-31T12:04:13.195Z,39.50
2018-07-31T12:06:43.219Z,39.60
2018-07-31T12:09:14.032Z,39.50
2018-07-31T12:11:44.795Z,39.80
2018-07-31T12:14:15.104Z,40.20
2018-07-31T12:16:45.161Z,40.20
2018-07-31T12:19:15.224Z,41.50
2018-07-31T12:21:45.314Z,42.30
2018-07-31T12:24:15.511Z,41.00
2018-07-31T12:26:45.604Z,42.10
2018-07-31T12:29:15.668Z,40.80
2018-07-31T12:31:45.731Z,42.30
2018-07-31T12:34:15.804Z,42.60
2018-07-31T12:36:45.939Z,43.00
2018-07-31T12:39:16.000Z,45.50
2018-07-31T12:41:46.052Z,44.60
2018-07-31T12:44:16.140Z,43.60
2018-07-31T12:46:46.195Z,43.90
2018-07-31T12:49:16.303Z,41.10
2018-07-31T12:51:46.391Z,40.70
2018-07-31T12:54:16.491Z,43.30
2018-07-31T12:56:46.564Z,44.20
2018-07-31T12:59:16.631Z,41.80
2018-07-31T13:01:46.701Z,41.50
2018-07-31T13:04:16.788Z,40.10
2018-07-31T13:06:46.900Z,40.10
2018-07-31T13:09:16.911Z,38.50
2018-07-31T13:11:46.975Z,37.30
2018-07-31T13:14:17.020Z,38.50
2018-07-31T13:16:47.343Z,41.30
2018-07-31T13:19:17.391Z,41.30
2018-07-31T13:21:47.478Z,40.80
2018-07-31T13:24:17.628Z,41.80
2018-07-31T13:26:47.755Z,38.80
2018-07-31T13:29:17.872Z,38.50
2018-07-31T13:31:47.980Z,39.00
2018-07-31T13:34:18.052Z,37.60
2018-07-31T13:36:48.192Z,39.70
2018-07-31T13:39:18.247Z,39.30
2018-07-31T13:41:48.340Z,40.10
2018-07-31T13:44:18.419Z,40.00
2018-07-31T13:46:48.507Z,41.40
2018-07-31T13:49:18.567Z,40.40
2018-07-31T13:51:48.627Z,39.90
2018-07-31T13:54:18.691Z,41.50
2018-07-31T13:56:48.800Z,41.30
2018-07-31T13:59:18.903Z,41.10
2018-07-31T14:01:49.003Z,42.60
2018-07-31T14:04:19.063Z,41.30
2018-07-31T14:06:49.204Z,42.40
2018-07-31T14:09:19.255Z,40.80
2018-07-31T14:11:49.357Z,40.50
2018-07-31T14:14:19.411Z,39.90
2018-07-31T14:16:49.520Z,39.60
2018-07-31T14:19:19.603Z,41.00
2018-07-31T14:21:49.723Z,41.60
2018-07-31T14:24:19.896Z,41.80
2018-07-31T14:26:49.959Z,40.40
2018-07-31T14:29:20.079Z,40.90
2018-07-31T14:31:50.180Z,41.60
2018-07-31T14:34:20.287Z,41.80
2018-07-31T14:36:50.396Z,42.20
2018-07-31T14:39:20.484Z,41.90
2018-07-31T14:41:50.659Z,42.30
2018-07-31T14:44:20.716Z,42.70
2018-07-31T14:46:50.787Z,42.40
2018-07-31T14:49:20.875Z,43.00
2018-07-31T14:51:50.927Z,44.20
2018-07-31T14:54:20.988Z,42.50
2018-07-31T14:56:51.079Z,44.00
2018-07-31T14:59:21.188Z,42.20
2018-07-31T15:01:51.240Z,42.90
2018-07-31T15:04:21.319Z,42.90
2018-07-31T15:06:51.414Z,42.60
2018-07-31T15:09:21.475Z,42.20
2018-07-31T15:11:51.934Z,42.40
2018-07-31T15:14:21.998Z,42.10
2018-07-31T15:16:52.143Z,42.40
2018-07-31T15:19:22.211Z,43.60
2018-07-31T15:21:52.299Z,43.40
2018-07-31T15:24:22.387Z,44.30
2018-07-31T15:26:52.498Z,43.80
2018-07-31T15:29:22.591Z,44.20
2018-07-31T15:31:52.698Z,43.70
2018-07-31T15:34:22.819Z,44.90
2018-07-31T15:36:52.964Z,45.20
2018-07-31T15:39:23.051Z,45.20
2018-07-31T15:41:53.152Z,44.80
2018-07-31T15:44:23.227Z,45.10
2018-07-31T15:46:53.285Z,44.80
2018-07-31T15:49:23.344Z,44.30
2018-07-31T15:51:53.567Z,44.00
2018-07-31T15:54:23.611Z,44.80
2018-07-31T15:56:53.679Z,44.60
2018-07-31T15:59:23.772Z,45.60
2018-07-31T16:01:53.916Z,46.30
2018-07-31T16:04:24.020Z,46.30
2018-07-31T16:06:54.092Z,47.10
2018-07-31T16:09:24.181Z,46.60
2018-07-31T16:11:54.252Z,46.00
2018-07-31T16:14:24.323Z,46.40
2018-07-31T16:16:54.487Z,46.80
2018-07-31T16:19:24.546Z,46.80
2018-07-31T16:21:54.760Z,47.70
2018-07-31T16:24:24.831Z,47.80
2018-07-31T16:26:54.988Z,47.70
2018-07-31T16:29:25.064Z,47.80
2018-07-31T16:31:55.167Z,48.10
2018-07-31T16:34:25.239Z,48.30
2018-07-31T16:36:58.236Z,48.40
2018-07-31T16:39:28.504Z,48.70
2018-07-31T16:41:59.445Z,48.50
2018-07-31T16:44:29.644Z,49.70
2018-07-31T16:46:59.778Z,50.80
2018-07-31T16:49:30.346Z,51.10
2018-07-31T16:52:00.748Z,50.90
2018-07-31T16:54:31.010Z,50.50
2018-07-31T16:57:01.388Z,50.10
2018-07-31T16:59:31.558Z,51.00
2018-07-31T17:02:01.828Z,50.20
2018-07-31T17:04:31.958Z,51.00
2018-07-31T17:07:02.065Z,50.40
2018-07-31T17:09:32.452Z,50.70
2018-07-31T17:12:02.515Z,51.40
2018-07-31T17:14:32.584Z,51.60
2018-07-31T17:17:02.648Z,52.00
2018-07-31T17:19:32.725Z,51.70
2018-07-31T17:22:03.640Z,51.80
2018-07-31T17:24:33.874Z,53.20
2018-07-31T17:27:03.991Z,52.80
2018-07-31T17:29:34.055Z,54.00
2018-07-31T17:32:04.200Z,53.80
2018-07-31T17:34:34.412Z,54.10
2018-07-31T17:37:04.539Z,53.90
2018-07-31T17:39:34.600Z,53.90
2018-07-31T17:42:05.494Z,54.20
2018-07-31T17:44:35.619Z,55.00
2018-07-31T17:47:05.702Z,55.00
2018-07-31T17:49:35.760Z,55.40
2018-07-31T17:52:06.185Z,55.60
2018-07-31T17:54:36.252Z,56.40
2018-07-31T17:57:06.788Z,56.70
2018-07-31T17:59:37.216Z,57.90
2018-07-31T18:02:07.569Z,58.40
2018-07-31T18:04:37.639Z,58.80
2018-07-31T18:07:07.822Z,58.50
2018-07-31T18:09:37.939Z,59.20
2018-07-31T18:12:08.084Z,63.60
2018-07-31T18:14:38.179Z,65.70
2018-07-31T18:17:08.455Z,66.80
2018-07-31T18:19:38.552Z,68.70
2018-07-31T18:22:08.663Z,71.50
2018-07-31T18:24:38.784Z,72.60
2018-07-31T18:27:08.940Z,73.50
2018-07-31T18:29:39.013Z,74.70
2018-07-31T18:32:09.156Z,74.00
2018-07-31T18:34:39.257Z,73.70
2018-07-31T18:37:09.372Z,75.00
2018-07-31T18:39:39.467Z,75.30
2018-07-31T18:42:09.543Z,74.60
2018-07-31T18:44:39.651Z,75.10
2018-07-31T18:47:09.743Z,77.30
2018-07-31T18:49:39.819Z,78.20
2018-07-31T18:52:09.929Z,80.30
2018-07-31T18:54:39.995Z,81.20
2018-07-31T18:57:10.079Z,80.80
2018-07-31T18:59:40.144Z,81.70
2018-07-31T19:02:10.303Z,81.90
2018-07-31T19:04:40.380Z,78.50
2018-07-31T19:07:10.548Z,79.70
2018-07-31T19:09:43.515Z,80.00
2018-07-31T19:12:16.411Z,78.30
2018-07-31T19:14:49.111Z,78.80
2018-07-31T19:17:22.530Z,79.90
2018-07-31T19:19:55.296Z,81.00
2018-07-31T19:22:25.436Z,81.40
2018-07-31T19:24:55.578Z,81.70
2018-07-31T19:27:25.683Z,80.60
2018-07-31T19:29:55.885Z,79.60
2018-07-31T19:32:26.327Z,79.40
2018-07-31T19:34:56.627Z,78.30
2018-07-31T19:37:26.772Z,77.80
2018-07-31T19:39:56.935Z,83.00
2018-07-31T19:42:27.115Z,85.80
2018-07-31T19:44:57.541Z,84.40
2018-07-31T19:47:27.754Z,84.90
2018-07-31T19:49:57.939Z,86.60
2018-07-31T19:52:28.132Z,87.80
2018-07-31T19:54:58.320Z,88.20
2018-07-31T19:57:28.430Z,86.70
2018-07-31T19:59:58.647Z,88.80
2018-07-31T20:02:30.319Z,88.70
2018-07-31T20:05:00.768Z,89.70
2018-07-31T20:07:30.843Z,90.30
2018-07-31T20:10:01.264Z,90.00
2018-07-31T20:12:31.351Z,90.10
2018-07-31T20:15:01.743Z,90.20
2018-07-31T20:17:31.953Z,90.60
2018-07-31T20:20:02.108Z,91.50
2018-07-31T20:22:32.240Z,91.90
2018-07-31T20:25:02.425Z,92.60
2018-07-31T20:27:32.504Z,93.10
2018-07-31T20:30:02.639Z,93.00
2018-07-31T20:32:32.709Z,93.30
2018-07-31T20:35:02.807Z,93.10
2018-07-31T20:37:32.912Z,93.20
2018-07-31T20:40:02.997Z,93.20
2018-07-31T20:42:33.143Z,93.20
2018-07-31T20:45:03.215Z,93.40
2018-07-31T20:47:33.313Z,93.60
2018-07-31T20:50:03.468Z,93.90
2018-07-31T20:52:33.567Z,94.00
2018-07-31T20:55:03.668Z,93.90
2018-07-31T20:57:33.787Z,94.40
2018-07-31T21:00:03.996Z,94.70
2018-07-31T21:02:34.143Z,94.60
2018-07-31T21:05:04.807Z,94.80
2018-07-31T21:07:34.936Z,94.80
2018-07-31T21:10:05.495Z,94.70
2018-07-31T21:12:35.608Z,94.40
2018-07-31T21:15:06.051Z,94.50
2018-07-31T21:17:36.157Z,93.30
2018-07-31T21:20:06.447Z,94.00
2018-07-31T21:22:36.516Z,94.40
2018-07-31T21:25:06.784Z,94.50
2018-07-31T21:27:36.931Z,94.70
2018-07-31T21:30:07.068Z,94.80
2018-07-31T21:32:37.159Z,94.90
2018-07-31T21:35:07.232Z,95.00
2018-07-31T21:37:37.296Z,95.20
2018-07-31T21:40:07.359Z,95.30
2018-07-31T21:42:37.440Z,95.40
2018-07-31T21:45:07.512Z,95.50
2018-07-31T21:47:37.633Z,95.60
2018-07-31T21:50:07.731Z,95.50
2018-07-31T21:52:37.944Z,95.90
2018-07-31T21:55:08.040Z,95.60
2018-07-31T21:57:38.112Z,96.00
2018-07-31T22:00:10.524Z,95.80
2018-07-31T22:02:40.641Z,95.70
2018-07-31T22:05:10.740Z,95.80
2018-07-31T22:07:40.828Z,95.90
2018-07-31T22:10:10.947Z,96.20
2018-07-31T22:12:41.047Z,96.40
2018-07-31T22:15:11.107Z,96.30
2018-07-31T22:17:41.229Z,96.20
2018-07-31T22:20:11.336Z,96.20
2018-07-31T22:22:41.403Z,96.00
2018-07-31T22:25:11.551Z,96.00
2018-07-31T22:27:41.564Z,96.10
2018-07-31T22:30:11.910Z,96.30
2018-07-31T22:32:41.935Z,96.20
2018-07-31T22:35:12.015Z,96.40
2018-07-31T22:37:42.109Z,96.80
2018-07-31T22:40:12.176Z,96.80
2018-07-31T22:42:42.307Z,96.50
2018-07-31T22:45:12.396Z,96.70
2018-07-31T22:47:42.471Z,96.90
2018-07-31T22:50:12.548Z,97.10
2018-07-31T22:52:42.616Z,97.10
2018-07-31T22:55:12.709Z,97.20
2018-07-31T22:57:42.788Z,97.10
2018-07-31T23:00:12.893Z,96.80
2018-07-31T23:02:43.068Z,96.90
2018-07-31T23:05:13.528Z,96.90
2018-07-31T23:07:43.620Z,97.10
2018-07-31T23:10:13.744Z,97.20
2018-07-31T23:12:43.851Z,97.00
2018-07-31T23:15:13.940Z,97.10
2018-07-31T23:17:44.016Z,97.20
2018-07-31T23:20:14.136Z,97.30
2018-07-31T23:22:49.536Z,97.00
2018-07-31T23:25:19.716Z,97.10
2018-07-31T23:27:49.791Z,97.50
2018-07-31T23:30:19.868Z,97.70
2018-07-31T23:32:49.935Z,97.50
2018-07-31T23:35:20.043Z,97.40
2018-07-31T23:37:50.100Z,97.30
2018-07-31T23:40:20.167Z,97.30
2018-07-31T23:42:50.230Z,97.50
2018-07-31T23:45:20.299Z,97.70
2018-07-31T23:47:50.364Z,97.50
2018-07-31T23:50:20.424Z,97.60
2018-07-31T23:52:50.575Z,97.60
2018-07-31T23:55:20.679Z,97.60
2018-07-31T23:57:50.798Z,97.50
